createdAt,value
2023-03-27T00:03:05.804Z,98659.20
2023-03-27T00:08:11.442Z,98651.95
2023-03-27T00:13:14.385Z,98649.28
2023-03-27T00:18:17.595Z,98646.83
2023-03-27T00:23:20.235Z,98642.87
2023-03-27T00:28:23.073Z,98642.76
2023-03-27T00:33:26.461Z,98648.48
2023-03-27T00:38:29.551Z,98641.34
2023-03-27T00:43:34.588Z,98639.13
2023-03-27T00:48:37.766Z,98642.16
2023-03-27T00:53:41.200Z,98640.58
2023-03-27T00:58:48.564Z,98642.48
2023-03-27T01:03:53.744Z,98632.47
2023-03-27T01:08:56.488Z,98631.80
2023-03-27T01:14:15.562Z,98629.91
2023-03-27T01:19:38.284Z,98625.48
2023-03-27T01:24:55.798Z,98622.90
2023-03-27T01:30:13.775Z,98630.68
2023-03-27T01:35:41.502Z,98638.30
2023-03-27T01:40:55.638Z,98638.65
2023-03-27T01:46:31.530Z,98638.20
2023-03-27T01:51:41.661Z,98644.50
2023-03-27T01:56:53.528Z,98645.45
2023-03-27T02:02:17.234Z,98658.81
2023-03-27T02:07:30.200Z,98670.35
2023-03-27T02:12:34.815Z,98679.64
2023-03-27T02:17:44.668Z,98687.91
2023-03-27T02:22:50.100Z,98705.17
2023-03-27T02:28:05.832Z,98704.39
2023-03-27T02:33:33.696Z,98706.64
2023-03-27T02:38:44.925Z,98708.50
2023-03-27T02:44:07.095Z,98704.38
2023-03-27T02:49:15.943Z,98702.83
2023-03-27T02:54:29.799Z,98707.27
2023-03-27T02:59:39.497Z,98713.20
2023-03-27T03:04:56.909Z,98716.09
2023-03-27T03:09:59.541Z,98719.62
2023-03-27T03:15:02.283Z,98726.80
2023-03-27T03:20:07.028Z,98724.52
2023-03-27T03:25:10.746Z,98724.60
2023-03-27T03:30:16.875Z,98732.29
2023-03-27T03:35:22.253Z,98733.27
2023-03-27T03:40:24.788Z,98734.13
2023-03-27T03:45:27.236Z,98741.20
2023-03-27T03:50:29.726Z,98743.23
2023-03-27T03:55:32.251Z,98741.44
2023-03-27T04:00:40.656Z,98744.70
2023-03-27T04:05:43.134Z,98746.81
2023-03-27T04:10:48.230Z,98754.83
2023-03-27T04:15:52.650Z,98762.30
2023-03-27T04:20:55.399Z,98761.88
2023-03-27T04:26:00.217Z,98763.38
2023-03-27T04:31:07.914Z,98760.98
2023-03-27T04:36:11.773Z,98757.73
2023-03-27T04:41:14.391Z,98753.30
2023-03-27T04:46:16.903Z,98753.70
2023-03-27T04:51:19.965Z,98753.17
2023-03-27T04:56:22.715Z,98750.88
2023-03-27T05:01:25.630Z,98756.54
2023-03-27T05:06:28.880Z,98759.17
2023-03-27T05:11:31.560Z,98757.12
2023-03-27T05:16:35.763Z,98761.65
2023-03-27T05:21:39.158Z,98758.89
2023-03-27T05:26:41.992Z,98763.80
2023-03-27T05:31:44.733Z,98771.77
2023-03-27T05:36:48.374Z,98777.99
2023-03-27T05:41:51.061Z,98787.52
2023-03-27T05:46:54.087Z,98795.51
2023-03-27T05:51:57.692Z,98795.31
2023-03-27T05:57:01.169Z,98801.38
2023-03-27T06:02:04.269Z,98808.04
2023-03-27T06:07:06.908Z,98810.88
2023-03-27T06:12:10.696Z,98816.58
2023-03-27T06:17:13.190Z,98821.42
2023-03-27T06:22:17.286Z,98835.80
2023-03-27T06:27:23.202Z,98852.29
2023-03-27T13:12:23.065Z,99305.82
2023-03-27T13:17:41.129Z,99315.68
2023-03-27T13:23:03.025Z,99315.52
2023-03-27T13:28:37.430Z,99332.02
2023-03-27T13:33:45.200Z,99333.23
2023-03-27T13:39:11.770Z,99334.09
2023-03-27T13:44:26.399Z,99334.08
2023-03-27T13:50:14.176Z,99333.76
2023-03-27T13:55:17.700Z,99355.16
2023-03-27T14:00:39.127Z,99378.37
2023-03-27T14:05:59.679Z,99392.79
2023-03-27T14:11:23.725Z,99396.91
2023-03-27T14:16:41.603Z,99399.81
2023-03-27T14:21:56.172Z,99404.64
2023-03-27T14:27:01.062Z,99414.16
2023-03-27T14:32:14.137Z,99419.60
2023-03-27T14:37:29.819Z,99429.53
2023-03-27T14:42:33.438Z,99445.99
2023-03-27T14:47:36.564Z,99448.11
2023-03-27T14:52:39.193Z,99461.27
2023-03-27T14:57:41.925Z,99467.80
2023-03-27T15:02:47.762Z,99477.91
2023-03-27T15:07:50.518Z,99488.20
2023-03-27T15:12:54.735Z,99499.27
2023-03-27T15:17:59.905Z,99510.98
2023-03-27T15:23:19.100Z,99521.01
2023-03-27T15:28:28.799Z,99526.73
2023-03-27T15:33:40.967Z,99534.05
2023-03-27T15:38:44.905Z,99541.67
2023-03-27T15:43:47.991Z,99552.55
2023-03-27T15:48:56.270Z,99568.73
2023-03-27T15:54:42.501Z,99580.58
2023-03-27T15:59:52.098Z,99592.65
2023-03-27T16:04:58.029Z,99597.44
2023-03-27T16:10:04.969Z,99596.45
2023-03-27T16:15:41.836Z,99604.27
2023-03-27T16:20:44.836Z,99611.98
2023-03-27T16:25:47.545Z,99614.25
2023-03-27T16:30:51.252Z,99629.82
2023-03-27T16:35:56.522Z,99636.84
2023-03-27T16:40:59.213Z,99642.77
2023-03-27T16:46:03.380Z,99648.64
2023-03-27T16:51:06.459Z,99651.16
2023-03-27T16:56:09.526Z,99649.33
2023-03-27T17:01:12.335Z,99656.29
2023-03-27T17:06:17.454Z,99665.17
2023-03-27T17:11:20.311Z,99664.41
2023-03-27T17:16:22.860Z,99664.81
2023-03-27T17:21:26.878Z,99672.05
2023-03-27T17:26:33.152Z,99671.08
2023-03-27T17:31:36.010Z,99671.77
2023-03-27T17:36:43.227Z,99676.73
2023-03-27T17:41:50.784Z,99677.18
2023-03-27T17:46:53.571Z,99677.21
2023-03-27T17:51:56.108Z,99683.04
2023-03-27T17:56:58.629Z,99684.62
2023-03-27T18:02:01.479Z,99689.44
2023-03-27T18:07:04.179Z,99694.71
2023-03-27T18:12:07.230Z,99695.79
2023-03-27T18:17:10.380Z,99697.34
2023-03-27T18:22:13.145Z,99703.89
2023-03-27T18:27:16.603Z,99705.49
2023-03-27T18:32:20.697Z,99711.16
2023-03-27T18:37:23.179Z,99712.08
2023-03-27T18:42:27.082Z,99714.04
2023-03-27T18:47:32.360Z,99720.30
2023-03-27T18:52:35.329Z,99718.33
2023-03-27T18:57:38.304Z,99718.48
2023-03-27T19:02:41.184Z,99718.65
2023-03-27T19:07:44.967Z,99718.42
2023-03-27T19:12:49.664Z,99721.19
2023-03-27T19:17:52.164Z,99723.92
2023-03-27T19:22:54.760Z,99725.09
2023-03-27T19:27:57.241Z,99722.99
2023-03-27T19:33:00.292Z,99722.20
2023-03-27T19:38:03.997Z,99721.46
2023-03-27T19:43:06.659Z,99717.86
2023-03-27T19:48:09.164Z,99714.63
2023-03-27T19:53:12.004Z,99704.30
2023-03-27T19:58:14.630Z,99698.50
2023-03-27T20:03:19.454Z,99698.05
2023-03-27T20:08:22.765Z,99695.55
2023-03-27T20:13:25.301Z,99694.45
2023-03-27T20:18:32.444Z,99693.25
2023-03-27T20:23:37.388Z,99687.77
2023-03-27T20:28:39.862Z,99689.14
2023-03-27T20:33:42.366Z,99680.91
2023-03-27T20:38:44.881Z,99671.16
2023-03-27T20:43:48.852Z,99664.27
2023-03-27T20:48:54.317Z,99662.23
2023-03-27T20:53:58.103Z,99660.84
2023-03-27T20:59:00.809Z,99660.25
2023-03-27T21:04:03.423Z,99660.34
2023-03-27T21:09:07.454Z,99657.34
2023-03-27T21:14:09.938Z,99650.23
2023-03-27T21:19:12.428Z,99650.77
2023-03-27T21:24:15.582Z,99646.86
2023-03-27T21:29:18.371Z,99640.74
2023-03-27T21:34:22.179Z,99635.70
2023-03-27T21:39:25.171Z,99632.39
2023-03-27T21:44:27.703Z,99632.55
2023-03-27T21:49:30.200Z,99630.21
2023-03-27T21:54:32.735Z,99625.52
2023-03-27T21:59:35.347Z,99626.27
2023-03-27T22:04:37.886Z,99633.48
2023-03-27T22:09:40.717Z,99636.58
2023-03-27T22:14:43.181Z,99639.31
2023-03-27T22:19:46.147Z,99638.08
2023-03-27T22:24:48.628Z,99634.10
2023-03-27T22:29:51.133Z,99634.16
2023-03-27T22:34:53.650Z,99638.42
2023-03-27T22:39:56.626Z,99638.54
2023-03-27T22:44:59.364Z,99637.82
2023-03-27T22:50:02.476Z,99639.45
2023-03-27T22:55:05.678Z,99630.98
2023-03-27T23:00:09.143Z,99623.07
2023-03-27T23:05:11.905Z,99620.32
2023-03-27T23:10:14.367Z,99617.41
2023-03-27T23:15:16.938Z,99611.23
2023-03-27T23:20:32.888Z,99613.02
2023-03-27T23:25:35.485Z,99612.95
2023-03-27T23:30:39.826Z,99609.45
2023-03-27T23:35:42.322Z,99613.73
2023-03-27T23:40:44.914Z,99610.92
2023-03-27T23:45:47.627Z,99609.56
2023-03-27T23:50:51.675Z,99611.61
2023-03-27T23:55:56.170Z,99612.46
